Oliver Springs, Tennessee
Current Conditions -  °F | °C
As of 5:53 AM on Thursday 27 Nov 2014 (Local Time) from KOQT Reporting Station
Broken Clouds Broken Clouds  
Wind Chill:   Ceiling: 2600
Heat Index:   Visibility: 10mi
Dew Point: -1°   Wind: 9mph
Humidity: 76%   Direction: 270°W
Pressure: 30.11"   Gusts: 20mph
Location:  36.04°N, 84.34°W
Report Text: KOQT 271053Z AUTO 27008G17KT 10SM BKN026 BKN060 03/M01 A3011 RMK AO2 SLP202 T00331006
Loading
Personal Weather Stations






























Interactive Weather Map New forecast layout! Learn more

10-Day Weather Forecast

Advertisements
Track Severe Weather on mobile